sensor_id;sensor_type;location;lat;lon;timestamp;temperature;humidity
52743;DHT22;55583;53.012;6.556;2023-07-31T00:00:28;15.70;99.90
52743;DHT22;55583;53.012;6.556;2023-07-31T00:02:54;15.60;99.90
52743;DHT22;55583;53.012;6.556;2023-07-31T00:05:20;15.50;99.90
52743;DHT22;55583;53.012;6.556;2023-07-31T00:10:22;15.50;99.90
52743;DHT22;55583;53.012;6.556;2023-07-31T00:12:48;15.50;99.90
52743;DHT22;55583;53.012;6.556;2023-07-31T00:15:14;15.40;99.90
52743;DHT22;55583;53.012;6.556;2023-07-31T00:17:40;15.40;99.90
52743;DHT22;55583;53.012;6.556;2023-07-31T00:20:06;15.40;99.90
52743;DHT22;55583;53.012;6.556;2023-07-31T00:22:32;15.30;99.90
52743;DHT22;55583;53.012;6.556;2023-07-31T00:24:58;15.30;99.90
52743;DHT22;55583;53.012;6.556;2023-07-31T00:27:25;15.30;99.90
52743;DHT22;55583;53.012;6.556;2023-07-31T00:29:50;15.30;99.90
52743;DHT22;55583;53.012;6.556;2023-07-31T00:32:16;15.30;99.90
52743;DHT22;55583;53.012;6.556;2023-07-31T00:34:42;15.20;99.90
52743;DHT22;55583;53.012;6.556;2023-07-31T00:37:07;15.20;99.90
52743;DHT22;55583;53.012;6.556;2023-07-31T00:39:34;15.20;99.90
52743;DHT22;55583;53.012;6.556;2023-07-31T00:42:00;15.20;99.90
52743;DHT22;55583;53.012;6.556;2023-07-31T00:44:26;15.20;99.90
52743;DHT22;55583;53.012;6.556;2023-07-31T00:46:52;15.10;99.90
52743;DHT22;55583;53.012;6.556;2023-07-31T00:49:18;15.10;99.90
52743;DHT22;55583;53.012;6.556;2023-07-31T00:51:43;15.20;99.90
52743;DHT22;55583;53.012;6.556;2023-07-31T00:54:09;15.10;99.90
52743;DHT22;55583;53.012;6.556;2023-07-31T00:56:36;15.20;99.90
52743;DHT22;55583;53.012;6.556;2023-07-31T00:59:02;15.10;99.90
52743;DHT22;55583;53.012;6.556;2023-07-31T01:01:28;15.10;99.90
52743;DHT22;55583;53.012;6.556;2023-07-31T01:03:54;15.20;99.90
52743;DHT22;55583;53.012;6.556;2023-07-31T01:09:10;15.10;99.90
52743;DHT22;55583;53.012;6.556;2023-07-31T01:11:43;15.10;99.90
52743;DHT22;55583;53.012;6.556;2023-07-31T01:14:11;15.10;99.90
52743;DHT22;55583;53.012;6.556;2023-07-31T01:16:36;15.10;99.90
52743;DHT22;55583;53.012;6.556;2023-07-31T01:19:02;15.10;99.90
52743;DHT22;55583;53.012;6.556;2023-07-31T01:27:24;15.10;99.90
52743;DHT22;55583;53.012;6.556;2023-07-31T01:30:13;15.00;99.90
52743;DHT22;55583;53.012;6.556;2023-07-31T01:32:43;15.00;99.90
52743;DHT22;55583;53.012;6.556;2023-07-31T01:35:09;15.00;99.90
52743;DHT22;55583;53.012;6.556;2023-07-31T01:37:35;15.10;99.90
52743;DHT22;55583;53.012;6.556;2023-07-31T01:40:01;15.10;99.90
52743;DHT22;55583;53.012;6.556;2023-07-31T01:42:27;15.00;99.90
52743;DHT22;55583;53.012;6.556;2023-07-31T01:44:52;15.00;99.90
52743;DHT22;55583;53.012;6.556;2023-07-31T01:47:18;15.00;99.90
52743;DHT22;55583;53.012;6.556;2023-07-31T01:49:44;15.10;99.90
52743;DHT22;55583;53.012;6.556;2023-07-31T01:52:09;15.00;99.90
52743;DHT22;55583;53.012;6.556;2023-07-31T01:54:35;15.00;99.90
52743;DHT22;55583;53.012;6.556;2023-07-31T01:57:02;15.00;99.90
52743;DHT22;55583;53.012;6.556;2023-07-31T01:59:28;15.00;99.90
52743;DHT22;55583;53.012;6.556;2023-07-31T02:01:54;15.00;99.90
52743;DHT22;55583;53.012;6.556;2023-07-31T02:04:20;15.00;99.90
52743;DHT22;55583;53.012;6.556;2023-07-31T02:06:45;15.00;99.90
52743;DHT22;55583;53.012;6.556;2023-07-31T02:09:11;15.00;99.90
52743;DHT22;55583;53.012;6.556;2023-07-31T02:11:36;15.00;99.90
52743;DHT22;55583;53.012;6.556;2023-07-31T02:14:02;15.00;99.90
52743;DHT22;55583;53.012;6.556;2023-07-31T02:16:28;15.00;99.90
52743;DHT22;55583;53.012;6.556;2023-07-31T02:18:53;15.00;99.90
52743;DHT22;55583;53.012;6.556;2023-07-31T02:21:19;15.00;99.90
52743;DHT22;55583;53.012;6.556;2023-07-31T02:23:44;15.00;99.90
52743;DHT22;55583;53.012;6.556;2023-07-31T02:26:10;15.00;99.90
52743;DHT22;55583;53.012;6.556;2023-07-31T02:28:36;15.00;99.90
52743;DHT22;55583;53.012;6.556;2023-07-31T02:31:01;15.00;99.90
52743;DHT22;55583;53.012;6.556;2023-07-31T02:33:27;15.00;99.90
52743;DHT22;55583;53.012;6.556;2023-07-31T02:35:53;15.00;99.90
52743;DHT22;55583;53.012;6.556;2023-07-31T02:38:18;15.00;99.90
52743;DHT22;55583;53.012;6.556;2023-07-31T02:40:44;15.00;99.90
52743;DHT22;55583;53.012;6.556;2023-07-31T02:43:10;15.00;99.90
52743;DHT22;55583;53.012;6.556;2023-07-31T02:45:35;15.10;99.90
52743;DHT22;55583;53.012;6.556;2023-07-31T02:48:01;15.10;99.90
52743;DHT22;55583;53.012;6.556;2023-07-31T02:50:27;15.10;99.90
52743;DHT22;55583;53.012;6.556;2023-07-31T02:52:55;15.10;99.90
52743;DHT22;55583;53.012;6.556;2023-07-31T02:55:21;15.10;99.90
52743;DHT22;55583;53.012;6.556;2023-07-31T02:57:46;15.10;99.90
52743;DHT22;55583;53.012;6.556;2023-07-31T03:00:13;15.10;99.90
52743;DHT22;55583;53.012;6.556;2023-07-31T03:02:38;15.20;99.90
52743;DHT22;55583;53.012;6.556;2023-07-31T03:05:04;15.20;99.90
52743;DHT22;55583;53.012;6.556;2023-07-31T03:07:30;15.20;99.90
52743;DHT22;55583;53.012;6.556;2023-07-31T03:09:56;15.20;99.90
52743;DHT22;55583;53.012;6.556;2023-07-31T03:12:22;15.30;99.90
52743;DHT22;55583;53.012;6.556;2023-07-31T03:14:47;15.20;99.90
52743;DHT22;55583;53.012;6.556;2023-07-31T03:17:13;15.30;99.90
52743;DHT22;55583;53.012;6.556;2023-07-31T03:19:38;15.30;99.90
52743;DHT22;55583;53.012;6.556;2023-07-31T03:22:04;15.30;99.90
52743;DHT22;55583;53.012;6.556;2023-07-31T03:24:30;15.30;99.90
52743;DHT22;55583;53.012;6.556;2023-07-31T03:26:56;15.30;99.90
52743;DHT22;55583;53.012;6.556;2023-07-31T03:29:21;15.30;99.90
52743;DHT22;55583;53.012;6.556;2023-07-31T03:31:47;15.30;99.90
52743;DHT22;55583;53.012;6.556;2023-07-31T03:34:13;15.30;99.90
52743;DHT22;55583;53.012;6.556;2023-07-31T03:36:38;15.30;99.90
52743;DHT22;55583;53.012;6.556;2023-07-31T03:39:04;15.30;99.90
52743;DHT22;55583;53.012;6.556;2023-07-31T03:41:30;15.30;99.90
52743;DHT22;55583;53.012;6.556;2023-07-31T03:43:55;15.30;99.90
52743;DHT22;55583;53.012;6.556;2023-07-31T03:46:24;15.30;99.90
52743;DHT22;55583;53.012;6.556;2023-07-31T03:48:50;15.30;99.90
52743;DHT22;55583;53.012;6.556;2023-07-31T03:51:16;15.30;99.90
52743;DHT22;55583;53.012;6.556;2023-07-31T03:53:43;15.30;99.90
52743;DHT22;55583;53.012;6.556;2023-07-31T03:56:09;15.30;99.90
52743;DHT22;55583;53.012;6.556;2023-07-31T03:58:35;15.30;99.90
52743;DHT22;55583;53.012;6.556;2023-07-31T04:01:01;15.20;99.90
52743;DHT22;55583;53.012;6.556;2023-07-31T04:03:27;15.20;99.90
52743;DHT22;55583;53.012;6.556;2023-07-31T04:05:54;15.20;99.90
52743;DHT22;55583;53.012;6.556;2023-07-31T04:08:21;15.20;99.90
52743;DHT22;55583;53.012;6.556;2023-07-31T04:10:47;15.20;99.90
52743;DHT22;55583;53.012;6.556;2023-07-31T04:13:13;15.20;99.90
52743;DHT22;55583;53.012;6.556;2023-07-31T04:15:38;15.30;99.90
52743;DHT22;55583;53.012;6.556;2023-07-31T04:18:04;15.30;99.90
52743;DHT22;55583;53.012;6.556;2023-07-31T04:20:30;15.30;99.90
52743;DHT22;55583;53.012;6.556;2023-07-31T04:22:56;15.30;99.90
52743;DHT22;55583;53.012;6.556;2023-07-31T04:25:22;15.30;99.90
52743;DHT22;55583;53.012;6.556;2023-07-31T04:27:47;15.30;99.90
52743;DHT22;55583;53.012;6.556;2023-07-31T04:30:13;15.30;99.90
52743;DHT22;55583;53.012;6.556;2023-07-31T04:32:39;15.40;99.90
52743;DHT22;55583;53.012;6.556;2023-07-31T04:35:05;15.40;99.90
52743;DHT22;55583;53.012;6.556;2023-07-31T04:37:30;15.40;99.90
52743;DHT22;55583;53.012;6.556;2023-07-31T04:39:56;15.30;99.90
52743;DHT22;55583;53.012;6.556;2023-07-31T04:42:22;15.30;99.90
52743;DHT22;55583;53.012;6.556;2023-07-31T04:44:48;15.30;99.90
52743;DHT22;55583;53.012;6.556;2023-07-31T04:47:13;15.30;99.90
52743;DHT22;55583;53.012;6.556;2023-07-31T04:49:39;15.40;99.90
52743;DHT22;55583;53.012;6.556;2023-07-31T04:52:05;15.40;99.90
52743;DHT22;55583;53.012;6.556;2023-07-31T04:54:31;15.30;99.90
52743;DHT22;55583;53.012;6.556;2023-07-31T04:56:56;15.30;99.90
52743;DHT22;55583;53.012;6.556;2023-07-31T04:59:22;15.30;99.90
52743;DHT22;55583;53.012;6.556;2023-07-31T05:01:48;15.40;99.90
52743;DHT22;55583;53.012;6.556;2023-07-31T05:04:14;15.40;99.90
52743;DHT22;55583;53.012;6.556;2023-07-31T05:06:40;15.40;99.90
52743;DHT22;55583;53.012;6.556;2023-07-31T05:09:07;15.40;99.90
52743;DHT22;55583;53.012;6.556;2023-07-31T05:11:32;15.40;99.90
52743;DHT22;55583;53.012;6.556;2023-07-31T05:13:58;15.40;99.90
52743;DHT22;55583;53.012;6.556;2023-07-31T05:16:23;15.40;99.90
52743;DHT22;55583;53.012;6.556;2023-07-31T05:18:49;15.40;99.90
52743;DHT22;55583;53.012;6.556;2023-07-31T05:21:15;15.50;99.90
52743;DHT22;55583;53.012;6.556;2023-07-31T05:23:40;15.50;99.90
52743;DHT22;55583;53.012;6.556;2023-07-31T05:26:07;15.50;99.90
52743;DHT22;55583;53.012;6.556;2023-07-31T05:28:34;15.60;99.90
52743;DHT22;55583;53.012;6.556;2023-07-31T05:31:01;15.60;99.90
52743;DHT22;55583;53.012;6.556;2023-07-31T05:33:27;15.60;99.90
52743;DHT22;55583;53.012;6.556;2023-07-31T05:35:52;15.60;99.90
52743;DHT22;55583;53.012;6.556;2023-07-31T05:38:18;15.70;99.90
52743;DHT22;55583;53.012;6.556;2023-07-31T05:40:44;15.70;99.90
52743;DHT22;55583;53.012;6.556;2023-07-31T05:43:10;15.70;99.90
52743;DHT22;55583;53.012;6.556;2023-07-31T05:45:35;15.80;99.90
52743;DHT22;55583;53.012;6.556;2023-07-31T05:48:02;15.80;99.90
52743;DHT22;55583;53.012;6.556;2023-07-31T05:50:28;15.80;99.90
52743;DHT22;55583;53.012;6.556;2023-07-31T05:53:18;15.90;99.90
52743;DHT22;55583;53.012;6.556;2023-07-31T05:55:46;16.00;99.90
52743;DHT22;55583;53.012;6.556;2023-07-31T05:58:12;16.00;99.90
52743;DHT22;55583;53.012;6.556;2023-07-31T06:00:37;16.10;99.90
52743;DHT22;55583;53.012;6.556;2023-07-31T06:03:03;16.10;99.90
52743;DHT22;55583;53.012;6.556;2023-07-31T06:05:29;16.10;99.90
52743;DHT22;55583;53.012;6.556;2023-07-31T06:07:56;16.10;99.90
52743;DHT22;55583;53.012;6.556;2023-07-31T06:10:22;16.10;99.90
52743;DHT22;55583;53.012;6.556;2023-07-31T06:12:48;16.10;99.90
52743;DHT22;55583;53.012;6.556;2023-07-31T06:15:14;16.20;99.90
52743;DHT22;55583;53.012;6.556;2023-07-31T06:17:39;16.20;99.90
52743;DHT22;55583;53.012;6.556;2023-07-31T06:20:06;16.30;99.90
52743;DHT22;55583;53.012;6.556;2023-07-31T06:22:32;16.40;99.90
52743;DHT22;55583;53.012;6.556;2023-07-31T06:24:58;16.40;99.90
52743;DHT22;55583;53.012;6.556;2023-07-31T06:27:24;16.40;99.90
52743;DHT22;55583;53.012;6.556;2023-07-31T06:29:50;16.50;99.90
52743;DHT22;55583;53.012;6.556;2023-07-31T06:32:15;16.50;99.90
52743;DHT22;55583;53.012;6.556;2023-07-31T06:34:41;16.50;99.90
52743;DHT22;55583;53.012;6.556;2023-07-31T06:37:07;16.50;99.90
52743;DHT22;55583;53.012;6.556;2023-07-31T06:39:32;16.50;99.90
52743;DHT22;55583;53.012;6.556;2023-07-31T06:41:58;16.60;99.90
52743;DHT22;55583;53.012;6.556;2023-07-31T06:44:23;16.70;99.90
52743;DHT22;55583;53.012;6.556;2023-07-31T06:46:49;16.70;99.90
52743;DHT22;55583;53.012;6.556;2023-07-31T06:49:15;16.80;99.90
52743;DHT22;55583;53.012;6.556;2023-07-31T06:51:41;16.90;99.90
52743;DHT22;55583;53.012;6.556;2023-07-31T07:01:44;17.10;99.90
52743;DHT22;55583;53.012;6.556;2023-07-31T07:04:10;16.80;99.90
52743;DHT22;55583;53.012;6.556;2023-07-31T07:06:36;16.80;99.90
52743;DHT22;55583;53.012;6.556;2023-07-31T07:09:02;16.70;99.90
52743;DHT22;55583;53.012;6.556;2023-07-31T07:11:28;16.70;99.90
52743;DHT22;55583;53.012;6.556;2023-07-31T07:13:54;16.70;99.90
52743;DHT22;55583;53.012;6.556;2023-07-31T07:16:19;16.60;99.90
52743;DHT22;55583;53.012;6.556;2023-07-31T07:18:45;16.60;99.90
52743;DHT22;55583;53.012;6.556;2023-07-31T07:21:11;16.60;99.90
52743;DHT22;55583;53.012;6.556;2023-07-31T07:23:41;16.60;99.90
52743;DHT22;55583;53.012;6.556;2023-07-31T07:26:07;16.60;99.90
52743;DHT22;55583;53.012;6.556;2023-07-31T07:28:32;16.60;99.90
52743;DHT22;55583;53.012;6.556;2023-07-31T07:30:58;16.70;99.90
52743;DHT22;55583;53.012;6.556;2023-07-31T07:33:24;16.70;99.90
52743;DHT22;55583;53.012;6.556;2023-07-31T07:35:49;16.70;99.90
52743;DHT22;55583;53.012;6.556;2023-07-31T07:38:15;16.60;99.90
52743;DHT22;55583;53.012;6.556;2023-07-31T07:40:41;16.70;99.90
52743;DHT22;55583;53.012;6.556;2023-07-31T07:43:07;16.70;99.90
52743;DHT22;55583;53.012;6.556;2023-07-31T07:45:32;16.70;99.90
52743;DHT22;55583;53.012;6.556;2023-07-31T07:47:58;16.60;99.90
52743;DHT22;55583;53.012;6.556;2023-07-31T07:50:24;16.60;99.90
52743;DHT22;55583;53.012;6.556;2023-07-31T07:52:50;16.60;99.90
52743;DHT22;55583;53.012;6.556;2023-07-31T07:55:16;16.60;99.90
52743;DHT22;55583;53.012;6.556;2023-07-31T07:57:42;16.50;99.90
52743;DHT22;55583;53.012;6.556;2023-07-31T08:00:10;16.50;99.90
52743;DHT22;55583;53.012;6.556;2023-07-31T08:02:36;16.50;99.90
52743;DHT22;55583;53.012;6.556;2023-07-31T08:05:01;16.50;99.90
52743;DHT22;55583;53.012;6.556;2023-07-31T08:07:27;16.50;99.90
52743;DHT22;55583;53.012;6.556;2023-07-31T08:09:53;16.50;99.90
52743;DHT22;55583;53.012;6.556;2023-07-31T08:12:18;16.50;99.90
52743;DHT22;55583;53.012;6.556;2023-07-31T08:14:44;16.50;99.90
52743;DHT22;55583;53.012;6.556;2023-07-31T08:17:10;16.50;99.90
52743;DHT22;55583;53.012;6.556;2023-07-31T08:19:35;16.60;99.90
52743;DHT22;55583;53.012;6.556;2023-07-31T08:22:01;16.60;99.90
52743;DHT22;55583;53.012;6.556;2023-07-31T08:24:27;16.70;99.90
52743;DHT22;55583;53.012;6.556;2023-07-31T08:26:52;16.80;99.90
52743;DHT22;55583;53.012;6.556;2023-07-31T08:29:18;16.90;99.90
52743;DHT22;55583;53.012;6.556;2023-07-31T08:31:43;16.90;99.90
52743;DHT22;55583;53.012;6.556;2023-07-31T08:34:09;17.00;99.90
52743;DHT22;55583;53.012;6.556;2023-07-31T08:36:35;17.10;99.90
52743;DHT22;55583;53.012;6.556;2023-07-31T08:39:00;17.10;99.90
52743;DHT22;55583;53.012;6.556;2023-07-31T08:41:27;17.20;99.90
52743;DHT22;55583;53.012;6.556;2023-07-31T08:43:53;17.20;99.90
52743;DHT22;55583;53.012;6.556;2023-07-31T08:46:21;17.30;99.90
52743;DHT22;55583;53.012;6.556;2023-07-31T08:48:46;17.30;99.90
52743;DHT22;55583;53.012;6.556;2023-07-31T08:51:14;17.50;99.90
52743;DHT22;55583;53.012;6.556;2023-07-31T08:53:41;17.60;99.90
52743;DHT22;55583;53.012;6.556;2023-07-31T08:56:06;17.70;99.90
52743;DHT22;55583;53.012;6.556;2023-07-31T08:58:33;17.80;99.90
52743;DHT22;55583;53.012;6.556;2023-07-31T09:01:03;17.90;99.90
52743;DHT22;55583;53.012;6.556;2023-07-31T09:03:29;18.00;99.90
52743;DHT22;55583;53.012;6.556;2023-07-31T09:05:59;17.90;99.90
52743;DHT22;55583;53.012;6.556;2023-07-31T09:08:26;17.90;99.90
52743;DHT22;55583;53.012;6.556;2023-07-31T09:11:00;18.00;99.90
52743;DHT22;55583;53.012;6.556;2023-07-31T09:13:28;18.10;99.90
52743;DHT22;55583;53.012;6.556;2023-07-31T09:15:53;18.10;99.90
52743;DHT22;55583;53.012;6.556;2023-07-31T09:18:19;18.20;99.90
52743;DHT22;55583;53.012;6.556;2023-07-31T09:21:04;18.30;99.90
52743;DHT22;55583;53.012;6.556;2023-07-31T09:23:43;18.30;99.90
52743;DHT22;55583;53.012;6.556;2023-07-31T09:26:09;18.20;99.90
52743;DHT22;55583;53.012;6.556;2023-07-31T09:28:35;18.20;99.90
52743;DHT22;55583;53.012;6.556;2023-07-31T09:31:01;18.10;99.90
52743;DHT22;55583;53.012;6.556;2023-07-31T09:33:26;18.10;99.90
52743;DHT22;55583;53.012;6.556;2023-07-31T09:35:52;18.10;99.90
52743;DHT22;55583;53.012;6.556;2023-07-31T09:38:18;18.10;99.90
52743;DHT22;55583;53.012;6.556;2023-07-31T09:40:47;18.10;99.90
52743;DHT22;55583;53.012;6.556;2023-07-31T09:43:16;18.00;99.90
52743;DHT22;55583;53.012;6.556;2023-07-31T09:45:44;18.10;99.90
52743;DHT22;55583;53.012;6.556;2023-07-31T09:50:38;18.20;99.90
52743;DHT22;55583;53.012;6.556;2023-07-31T09:53:05;18.30;99.90
52743;DHT22;55583;53.012;6.556;2023-07-31T09:55:32;18.20;99.90
52743;DHT22;55583;53.012;6.556;2023-07-31T09:57:58;18.20;99.90
52743;DHT22;55583;53.012;6.556;2023-07-31T10:00:24;18.10;99.90
52743;DHT22;55583;53.012;6.556;2023-07-31T10:02:53;18.10;99.90
52743;DHT22;55583;53.012;6.556;2023-07-31T10:05:19;18.00;99.90
52743;DHT22;55583;53.012;6.556;2023-07-31T10:07:54;18.10;99.90
52743;DHT22;55583;53.012;6.556;2023-07-31T10:10:22;18.10;99.90
52743;DHT22;55583;53.012;6.556;2023-07-31T10:12:52;18.20;99.90
52743;DHT22;55583;53.012;6.556;2023-07-31T10:15:18;18.30;99.90
52743;DHT22;55583;53.012;6.556;2023-07-31T10:17:44;18.50;99.90
52743;DHT22;55583;53.012;6.556;2023-07-31T10:20:10;18.60;99.90
52743;DHT22;55583;53.012;6.556;2023-07-31T10:22:36;18.70;99.90
52743;DHT22;55583;53.012;6.556;2023-07-31T10:25:02;18.80;99.90
52743;DHT22;55583;53.012;6.556;2023-07-31T10:27:28;19.00;99.90
52743;DHT22;55583;53.012;6.556;2023-07-31T10:29:58;19.10;99.90
52743;DHT22;55583;53.012;6.556;2023-07-31T10:32:25;19.10;99.90
52743;DHT22;55583;53.012;6.556;2023-07-31T10:34:51;19.20;99.90
52743;DHT22;55583;53.012;6.556;2023-07-31T10:37:28;19.10;99.90
52743;DHT22;55583;53.012;6.556;2023-07-31T10:40:11;19.20;99.90
52743;DHT22;55583;53.012;6.556;2023-07-31T10:42:57;19.30;99.90
52743;DHT22;55583;53.012;6.556;2023-07-31T10:45:31;19.60;99.90
52743;DHT22;55583;53.012;6.556;2023-07-31T10:48:02;20.00;99.90
52743;DHT22;55583;53.012;6.556;2023-07-31T10:50:28;20.30;99.90
52743;DHT22;55583;53.012;6.556;2023-07-31T10:52:56;20.50;99.90
52743;DHT22;55583;53.012;6.556;2023-07-31T10:57:54;20.30;99.90
52743;DHT22;55583;53.012;6.556;2023-07-31T11:00:29;20.20;99.90
52743;DHT22;55583;53.012;6.556;2023-07-31T11:03:14;20.20;99.90
52743;DHT22;55583;53.012;6.556;2023-07-31T11:05:45;20.00;99.90
52743;DHT22;55583;53.012;6.556;2023-07-31T11:10:51;20.10;99.90
52743;DHT22;55583;53.012;6.556;2023-07-31T11:13:17;20.40;99.90
52743;DHT22;55583;53.012;6.556;2023-07-31T11:15:43;20.50;99.90
52743;DHT22;55583;53.012;6.556;2023-07-31T11:18:09;20.50;99.90
52743;DHT22;55583;53.012;6.556;2023-07-31T11:20:37;20.40;99.90
52743;DHT22;55583;53.012;6.556;2023-07-31T11:23:07;20.30;99.90
52743;DHT22;55583;53.012;6.556;2023-07-31T11:25:33;20.20;99.90
52743;DHT22;55583;53.012;6.556;2023-07-31T11:28:06;20.30;99.90
52743;DHT22;55583;53.012;6.556;2023-07-31T11:30:32;20.30;99.90
52743;DHT22;55583;53.012;6.556;2023-07-31T11:32:59;20.20;99.90
52743;DHT22;55583;53.012;6.556;2023-07-31T11:35:24;19.90;99.90
52743;DHT22;55583;53.012;6.556;2023-07-31T11:37:50;19.50;99.90
52743;DHT22;55583;53.012;6.556;2023-07-31T11:40:16;19.10;99.90
52743;DHT22;55583;53.012;6.556;2023-07-31T11:42:42;18.80;99.90
52743;DHT22;55583;53.012;6.556;2023-07-31T11:45:08;18.70;99.90
52743;DHT22;55583;53.012;6.556;2023-07-31T11:47:36;18.60;99.90
52743;DHT22;55583;53.012;6.556;2023-07-31T11:50:03;18.60;99.90
52743;DHT22;55583;53.012;6.556;2023-07-31T11:52:31;18.60;99.90
52743;DHT22;55583;53.012;6.556;2023-07-31T11:54:58;18.70;99.90
52743;DHT22;55583;53.012;6.556;2023-07-31T11:57:25;18.90;99.90
52743;DHT22;55583;53.012;6.556;2023-07-31T11:59:51;19.20;99.90
52743;DHT22;55583;53.012;6.556;2023-07-31T12:02:17;19.40;99.90
52743;DHT22;55583;53.012;6.556;2023-07-31T12:04:43;19.40;99.90
52743;DHT22;55583;53.012;6.556;2023-07-31T12:07:09;19.50;99.90
52743;DHT22;55583;53.012;6.556;2023-07-31T12:09:35;19.50;99.90
52743;DHT22;55583;53.012;6.556;2023-07-31T12:12:00;19.50;99.90
52743;DHT22;55583;53.012;6.556;2023-07-31T12:14:27;19.40;99.90
52743;DHT22;55583;53.012;6.556;2023-07-31T12:16:58;19.20;99.90
52743;DHT22;55583;53.012;6.556;2023-07-31T12:19:25;19.10;99.90
52743;DHT22;55583;53.012;6.556;2023-07-31T12:21:56;19.00;99.90
52743;DHT22;55583;53.012;6.556;2023-07-31T12:24:22;18.90;99.90
52743;DHT22;55583;53.012;6.556;2023-07-31T12:26:48;18.70;99.90
52743;DHT22;55583;53.012;6.556;2023-07-31T12:29:14;18.80;99.90
52743;DHT22;55583;53.012;6.556;2023-07-31T12:31:43;18.80;99.90
52743;DHT22;55583;53.012;6.556;2023-07-31T12:34:19;18.70;99.90
52743;DHT22;55583;53.012;6.556;2023-07-31T12:36:46;18.60;99.90
52743;DHT22;55583;53.012;6.556;2023-07-31T12:39:14;18.50;99.90
52743;DHT22;55583;53.012;6.556;2023-07-31T12:41:40;18.50;99.90
52743;DHT22;55583;53.012;6.556;2023-07-31T12:44:06;18.50;99.90
52743;DHT22;55583;53.012;6.556;2023-07-31T12:46:31;18.60;99.90
52743;DHT22;55583;53.012;6.556;2023-07-31T12:48:57;18.60;99.90
52743;DHT22;55583;53.012;6.556;2023-07-31T12:51:23;18.60;99.90
52743;DHT22;55583;53.012;6.556;2023-07-31T12:53:48;18.50;99.90
52743;DHT22;55583;53.012;6.556;2023-07-31T12:56:14;18.50;99.90
52743;DHT22;55583;53.012;6.556;2023-07-31T12:58:40;18.50;99.90
52743;DHT22;55583;53.012;6.556;2023-07-31T13:01:05;18.50;99.90
52743;DHT22;55583;53.012;6.556;2023-07-31T13:03:32;18.60;99.90
52743;DHT22;55583;53.012;6.556;2023-07-31T13:05:57;18.70;99.90
52743;DHT22;55583;53.012;6.556;2023-07-31T13:08:23;18.80;99.90
52743;DHT22;55583;53.012;6.556;2023-07-31T13:10:49;18.80;99.90
52743;DHT22;55583;53.012;6.556;2023-07-31T13:13:14;18.90;99.90
52743;DHT22;55583;53.012;6.556;2023-07-31T13:15:40;19.00;99.90
52743;DHT22;55583;53.012;6.556;2023-07-31T13:18:06;19.10;99.90
52743;DHT22;55583;53.012;6.556;2023-07-31T13:20:32;19.20;99.90
52743;DHT22;55583;53.012;6.556;2023-07-31T13:22:57;19.20;99.90
52743;DHT22;55583;53.012;6.556;2023-07-31T13:25:23;19.30;99.90
52743;DHT22;55583;53.012;6.556;2023-07-31T13:27:48;19.30;99.90
52743;DHT22;55583;53.012;6.556;2023-07-31T13:30:14;19.30;99.90
52743;DHT22;55583;53.012;6.556;2023-07-31T13:32:40;19.30;99.90
52743;DHT22;55583;53.012;6.556;2023-07-31T13:35:08;19.30;99.90
52743;DHT22;55583;53.012;6.556;2023-07-31T13:37:34;19.30;99.90
52743;DHT22;55583;53.012;6.556;2023-07-31T13:40:00;19.30;99.90
52743;DHT22;55583;53.012;6.556;2023-07-31T13:42:26;19.30;99.90
52743;DHT22;55583;53.012;6.556;2023-07-31T13:44:53;19.30;99.90
52743;DHT22;55583;53.012;6.556;2023-07-31T13:47:21;19.40;99.90
52743;DHT22;55583;53.012;6.556;2023-07-31T13:49:47;19.40;99.90
52743;DHT22;55583;53.012;6.556;2023-07-31T13:52:12;19.50;99.90
52743;DHT22;55583;53.012;6.556;2023-07-31T13:54:38;19.70;99.90
52743;DHT22;55583;53.012;6.556;2023-07-31T13:57:04;19.80;99.90
52743;DHT22;55583;53.012;6.556;2023-07-31T13:59:30;19.90;99.90
52743;DHT22;55583;53.012;6.556;2023-07-31T14:01:55;20.00;99.90
52743;DHT22;55583;53.012;6.556;2023-07-31T14:04:21;20.00;99.90
52743;DHT22;55583;53.012;6.556;2023-07-31T14:06:46;20.20;99.90
52743;DHT22;55583;53.012;6.556;2023-07-31T14:09:13;20.30;99.90
52743;DHT22;55583;53.012;6.556;2023-07-31T14:11:39;20.50;99.90
52743;DHT22;55583;53.012;6.556;2023-07-31T14:14:05;20.40;99.90
52743;DHT22;55583;53.012;6.556;2023-07-31T14:16:31;20.40;99.90
52743;DHT22;55583;53.012;6.556;2023-07-31T14:18:56;20.50;99.90
52743;DHT22;55583;53.012;6.556;2023-07-31T14:21:25;20.60;99.90
52743;DHT22;55583;53.012;6.556;2023-07-31T14:23:50;20.60;99.90
52743;DHT22;55583;53.012;6.556;2023-07-31T14:26:17;20.60;99.90
52743;DHT22;55583;53.012;6.556;2023-07-31T14:28:43;20.60;99.90
52743;DHT22;55583;53.012;6.556;2023-07-31T14:31:08;20.50;99.90
52743;DHT22;55583;53.012;6.556;2023-07-31T14:33:34;20.50;99.90
52743;DHT22;55583;53.012;6.556;2023-07-31T14:36:00;20.50;99.90
52743;DHT22;55583;53.012;6.556;2023-07-31T14:38:26;20.50;99.90
52743;DHT22;55583;53.012;6.556;2023-07-31T14:40:52;20.40;99.90
52743;DHT22;55583;53.012;6.556;2023-07-31T14:43:17;20.40;99.90
52743;DHT22;55583;53.012;6.556;2023-07-31T14:45:43;20.40;99.90
52743;DHT22;55583;53.012;6.556;2023-07-31T14:48:09;20.40;99.90
52743;DHT22;55583;53.012;6.556;2023-07-31T14:50:35;20.30;99.90
52743;DHT22;55583;53.012;6.556;2023-07-31T14:53:00;20.30;99.90
52743;DHT22;55583;53.012;6.556;2023-07-31T14:55:26;20.20;99.90
52743;DHT22;55583;53.012;6.556;2023-07-31T14:57:52;20.20;99.90
52743;DHT22;55583;53.012;6.556;2023-07-31T15:00:17;20.20;99.90
52743;DHT22;55583;53.012;6.556;2023-07-31T15:02:43;20.20;99.90
52743;DHT22;55583;53.012;6.556;2023-07-31T15:05:09;20.20;99.90
52743;DHT22;55583;53.012;6.556;2023-07-31T15:07:35;20.20;99.90
52743;DHT22;55583;53.012;6.556;2023-07-31T15:10:04;20.20;99.90
52743;DHT22;55583;53.012;6.556;2023-07-31T15:12:31;20.10;99.90
52743;DHT22;55583;53.012;6.556;2023-07-31T15:14:57;20.10;99.90
52743;DHT22;55583;53.012;6.556;2023-07-31T15:17:22;20.10;99.90
52743;DHT22;55583;53.012;6.556;2023-07-31T15:19:48;20.00;99.90
52743;DHT22;55583;53.012;6.556;2023-07-31T15:22:14;20.10;99.90
52743;DHT22;55583;53.012;6.556;2023-07-31T15:24:39;20.10;99.90
52743;DHT22;55583;53.012;6.556;2023-07-31T15:27:05;20.00;99.90
52743;DHT22;55583;53.012;6.556;2023-07-31T15:29:31;20.00;99.90
52743;DHT22;55583;53.012;6.556;2023-07-31T15:31:58;20.00;99.90
52743;DHT22;55583;53.012;6.556;2023-07-31T15:34:24;20.00;99.90
52743;DHT22;55583;53.012;6.556;2023-07-31T15:36:50;20.00;99.90
52743;DHT22;55583;53.012;6.556;2023-07-31T15:39:15;19.90;99.90
52743;DHT22;55583;53.012;6.556;2023-07-31T15:41:41;20.00;99.90
52743;DHT22;55583;53.012;6.556;2023-07-31T15:44:08;20.00;99.90
52743;DHT22;55583;53.012;6.556;2023-07-31T15:46:34;20.00;99.90
52743;DHT22;55583;53.012;6.556;2023-07-31T15:48:59;20.00;99.90
52743;DHT22;55583;53.012;6.556;2023-07-31T15:51:25;20.00;99.90